createdAt,value
2023-03-30T00:01:01.326Z,34.65
2023-03-30T00:04:05.396Z,34.97
2023-03-30T00:07:11.859Z,34.85
2023-03-30T00:10:19.337Z,34.90
2023-03-30T00:13:23.444Z,35.37
2023-03-30T00:16:27.665Z,36.06
2023-03-30T00:19:31.569Z,35.25
2023-03-30T00:22:36.964Z,35.58
2023-03-30T00:25:40.851Z,35.90
2023-03-30T00:28:44.752Z,35.08
2023-03-30T00:31:48.613Z,34.80
2023-03-30T00:34:52.262Z,34.88
2023-03-30T00:37:57.548Z,34.78
2023-03-30T00:41:02.908Z,35.23
2023-03-30T00:44:09.700Z,35.25
2023-03-30T00:47:13.762Z,35.67
2023-03-30T00:50:22.149Z,35.26
2023-03-30T00:53:30.361Z,35.57
2023-03-30T00:56:34.915Z,35.21
2023-03-30T00:59:38.842Z,35.55
2023-03-30T01:02:48.953Z,35.59
2023-03-30T01:05:54.045Z,35.72
2023-03-30T01:09:00.048Z,35.83
2023-03-30T01:12:05.612Z,35.45
2023-03-30T01:15:11.003Z,35.47
2023-03-30T01:18:26.462Z,35.66
2023-03-30T01:22:04.911Z,35.88
2023-03-30T01:25:41.022Z,35.54
2023-03-30T01:28:54.074Z,35.42
2023-03-30T01:32:22.060Z,35.80
2023-03-30T01:35:49.349Z,37.50
2023-03-30T01:39:29.293Z,37.21
2023-03-30T01:42:40.709Z,37.42
2023-03-30T01:45:47.483Z,37.00
2023-03-30T01:48:59.823Z,37.27
2023-03-30T01:52:07.148Z,36.88
2023-03-30T01:55:18.290Z,36.80
2023-03-30T01:58:27.608Z,37.71
2023-03-30T02:01:34.261Z,36.97
2023-03-30T02:04:42.117Z,36.99
2023-03-30T02:07:51.167Z,36.90
2023-03-30T02:10:58.826Z,37.02
2023-03-30T02:14:05.822Z,37.42
2023-03-30T02:17:17.449Z,37.18
2023-03-30T02:20:21.408Z,37.37
2023-03-30T02:23:30.342Z,37.92
2023-03-30T02:26:36.980Z,38.50
2023-03-30T02:29:44.902Z,39.68
2023-03-30T02:32:51.215Z,39.28
2023-03-30T02:36:12.577Z,38.59
2023-03-30T02:39:31.844Z,38.17
2023-03-30T02:42:56.588Z,38.95
2023-03-30T02:46:15.644Z,39.13
2023-03-30T02:49:27.343Z,39.08
2023-03-30T02:52:45.185Z,38.29
2023-03-30T02:56:00.804Z,38.99
2023-03-30T02:59:22.162Z,38.84
2023-03-30T03:02:32.385Z,39.66
2023-03-30T03:05:48.864Z,39.61
2023-03-30T03:08:55.091Z,39.26
2023-03-30T03:12:02.491Z,39.01
2023-03-30T03:15:14.324Z,39.12
2023-03-30T03:18:35.329Z,39.02
2023-03-30T03:21:39.567Z,40.14
2023-03-30T03:24:45.173Z,39.90
2023-03-30T03:27:51.914Z,39.71
2023-03-30T03:31:02.983Z,39.04
2023-03-30T03:34:07.262Z,38.90
2023-03-30T03:37:31.404Z,40.01
2023-03-30T03:40:35.175Z,39.78
2023-03-30T03:43:38.979Z,40.06
2023-03-30T03:46:44.582Z,39.84
2023-03-30T03:49:48.333Z,40.17
2023-03-30T03:52:52.225Z,39.83
2023-03-30T03:55:56.420Z,40.86
2023-03-30T03:59:03.057Z,40.93
2023-03-30T04:02:08.257Z,41.27
2023-03-30T04:05:12.316Z,41.27
2023-03-30T04:08:18.156Z,41.02
2023-03-30T04:11:22.725Z,41.74
2023-03-30T04:15:01.819Z,41.82
2023-03-30T04:18:36.475Z,42.89
2023-03-30T04:21:50.954Z,42.41
2023-03-30T04:25:15.189Z,42.39
2023-03-30T04:28:40.416Z,41.63
2023-03-30T04:32:03.902Z,41.10
2023-03-30T04:35:35.852Z,41.49
2023-03-30T04:39:01.698Z,41.95
2023-03-30T04:42:30.680Z,41.75
2023-03-30T04:45:57.295Z,41.60
2023-03-30T04:49:13.402Z,42.47
2023-03-30T04:52:38.926Z,43.28
2023-03-30T04:56:09.238Z,42.91
2023-03-30T04:59:38.862Z,42.77
2023-03-30T05:02:43.328Z,41.91
2023-03-30T05:06:11.711Z,41.88
2023-03-30T05:09:42.935Z,41.02
2023-03-30T05:13:02.119Z,41.43
2023-03-30T05:16:23.946Z,43.27
2023-03-30T05:19:46.949Z,42.77
2023-03-30T05:22:58.777Z,42.59
2023-03-30T05:26:22.566Z,42.64
2023-03-30T05:29:44.947Z,43.06
2023-03-30T05:33:03.581Z,41.40
2023-03-30T05:36:26.867Z,41.11
2023-03-30T05:39:42.826Z,40.06
2023-03-30T05:42:48.164Z,39.95
2023-03-30T05:46:12.340Z,39.16
2023-03-30T05:49:22.505Z,39.00
2023-03-30T05:52:37.925Z,38.15
2023-03-30T05:55:55.807Z,37.81
2023-03-30T05:59:19.585Z,37.08
2023-03-30T06:02:40.632Z,36.95
2023-03-30T06:05:50.065Z,37.23
2023-03-30T06:08:53.984Z,35.67
2023-03-30T06:12:01.526Z,35.47
2023-03-30T06:15:10.637Z,35.36
2023-03-30T06:18:28.131Z,34.80
2023-03-30T06:21:38.005Z,34.79
2023-03-30T06:24:58.312Z,34.71
2023-03-30T06:28:02.925Z,34.77
2023-03-30T06:31:12.419Z,35.56
2023-03-30T06:34:18.967Z,35.49
2023-03-30T06:37:23.384Z,35.05
2023-03-30T06:40:27.964Z,35.11
2023-03-30T06:43:33.543Z,34.84
2023-03-30T06:46:47.323Z,35.05
2023-03-30T06:49:51.304Z,34.27
2023-03-30T06:53:15.703Z,33.99
2023-03-30T06:56:22.903Z,33.86
2023-03-30T06:59:47.243Z,33.16
2023-03-30T07:02:58.463Z,33.28
2023-03-30T07:06:17.186Z,33.42
2023-03-30T07:09:23.123Z,33.15
2023-03-30T07:12:27.590Z,33.69
2023-03-30T07:15:31.785Z,32.96
2023-03-30T07:18:37.265Z,32.81
2023-03-30T07:21:41.965Z,32.63
2023-03-30T07:24:48.966Z,32.63
2023-03-30T07:27:52.990Z,32.64
2023-03-30T07:31:06.812Z,32.12
2023-03-30T07:34:13.766Z,32.05
2023-03-30T07:37:23.796Z,31.80
2023-03-30T07:40:27.889Z,32.03
2023-03-30T07:43:32.744Z,32.32
2023-03-30T07:46:38.027Z,32.20
2023-03-30T07:49:44.145Z,31.98
2023-03-30T07:52:49.583Z,31.55
2023-03-30T07:55:53.594Z,31.84
2023-03-30T07:59:05.791Z,31.58
2023-03-30T08:02:15.233Z,31.52
2023-03-30T08:05:27.628Z,31.22
2023-03-30T08:08:43.786Z,33.00
2023-03-30T08:11:48.824Z,32.68
2023-03-30T08:14:53.303Z,32.91
2023-03-30T08:17:57.896Z,32.28
2023-03-30T08:21:03.558Z,31.48
2023-03-30T08:24:09.103Z,31.60
2023-03-30T08:27:13.044Z,31.66
2023-03-30T08:30:17.806Z,31.54
2023-03-30T08:33:23.348Z,31.32
2023-03-30T08:36:28.847Z,31.19
2023-03-30T08:39:33.584Z,31.54
2023-03-30T08:43:05.128Z,31.78
2023-03-30T08:46:14.115Z,32.75
2023-03-30T08:49:21.262Z,32.45
2023-03-30T08:52:27.015Z,33.17
2023-03-30T08:55:36.728Z,32.31
2023-03-30T08:58:47.046Z,31.85
2023-03-30T09:01:55.827Z,31.72
2023-03-30T09:05:03.694Z,32.03
2023-03-30T09:08:14.983Z,30.55
2023-03-30T09:11:31.696Z,30.19
2023-03-30T09:14:39.064Z,30.42
2023-03-30T09:17:47.147Z,30.54
2023-03-30T09:20:53.863Z,31.01
2023-03-30T09:24:02.327Z,30.48
2023-03-30T09:27:11.346Z,28.85
2023-03-30T09:30:21.623Z,27.54
2023-03-30T09:33:32.931Z,25.82
2023-03-30T09:36:41.283Z,27.40
2023-03-30T09:39:47.584Z,27.00
2023-03-30T09:43:00.792Z,27.06
2023-03-30T09:46:08.381Z,25.51
2023-03-30T09:49:17.049Z,24.71
2023-03-30T09:52:23.462Z,22.97
2023-03-30T09:55:34.023Z,26.36
2023-03-30T09:58:38.645Z,27.30
2023-03-30T10:01:42.902Z,27.52
2023-03-30T10:05:04.524Z,26.83
2023-03-30T10:08:24.448Z,27.80
2023-03-30T10:11:37.445Z,28.21
2023-03-30T10:14:41.828Z,27.30
2023-03-30T10:17:48.509Z,28.04
2023-03-30T10:20:54.577Z,27.95
2023-03-30T10:24:08.446Z,28.29
2023-03-30T10:27:16.072Z,28.32
2023-03-30T10:30:23.829Z,28.11
2023-03-30T10:33:28.584Z,28.39
2023-03-30T10:36:35.817Z,27.77
2023-03-30T10:39:43.591Z,27.90
2023-03-30T10:42:53.213Z,27.73
2023-03-30T10:46:06.363Z,28.00
2023-03-30T10:49:34.245Z,27.35
2023-03-30T10:52:58.035Z,27.58
2023-03-30T10:56:11.548Z,27.64
2023-03-30T10:59:39.025Z,27.10
2023-03-30T11:02:58.823Z,28.40
2023-03-30T11:06:08.545Z,27.96
2023-03-30T11:09:17.424Z,28.28
2023-03-30T11:12:23.610Z,27.82
2023-03-30T11:15:34.884Z,28.32
2023-03-30T11:18:45.002Z,28.92
2023-03-30T11:21:57.189Z,28.88
2023-03-30T11:25:01.186Z,29.49
2023-03-30T11:28:16.164Z,27.43
2023-03-30T11:35:07.527Z,25.15
2023-03-30T11:38:16.531Z,24.82
2023-03-30T11:41:28.971Z,24.19
2023-03-30T11:44:33.686Z,24.51
2023-03-30T11:48:03.780Z,25.55
2023-03-30T11:51:22.309Z,25.36
2023-03-30T11:55:01.855Z,25.01
2023-03-30T11:58:17.046Z,23.99
2023-03-30T12:01:40.011Z,24.77
2023-03-30T12:04:51.480Z,25.24
2023-03-30T12:08:04.847Z,25.44
2023-03-30T12:11:18.543Z,26.40
2023-03-30T12:15:04.063Z,26.34
2023-03-30T12:18:15.646Z,26.59
2023-03-30T12:21:33.042Z,25.75
2023-03-30T12:24:44.612Z,26.25
2023-03-30T12:28:12.527Z,26.35
2023-03-30T12:31:17.666Z,26.01
2023-03-30T12:34:23.408Z,28.13
2023-03-30T12:37:35.252Z,27.92
2023-03-30T12:40:39.264Z,27.92
2023-03-30T12:44:22.086Z,27.90
2023-03-30T12:47:54.871Z,28.02
2023-03-30T12:51:09.292Z,28.51
2023-03-30T12:54:34.390Z,29.04
2023-03-30T12:58:02.070Z,28.98
2023-03-30T13:01:29.272Z,29.37
2023-03-30T13:04:38.853Z,29.42
2023-03-30T13:07:44.297Z,30.10
2023-03-30T13:10:49.869Z,30.78
2023-03-30T13:13:57.471Z,31.15
2023-03-30T13:17:12.926Z,30.88
2023-03-30T13:20:29.943Z,30.73
2023-03-30T13:23:35.188Z,31.04
2023-03-30T13:26:45.965Z,31.21
2023-03-30T13:29:54.104Z,31.48
2023-03-30T13:33:13.124Z,31.22
2023-03-30T13:36:19.982Z,31.88
2023-03-30T13:39:31.047Z,32.34
2023-03-30T13:42:49.485Z,32.39
2023-03-30T13:46:13.756Z,32.55
2023-03-30T13:49:41.908Z,32.76
2023-03-30T13:52:48.243Z,32.77
2023-03-30T13:55:52.547Z,32.54
2023-03-30T13:59:04.647Z,32.23
2023-03-30T14:02:14.192Z,31.96
2023-03-30T14:05:22.418Z,31.54
2023-03-30T14:08:26.602Z,31.35
2023-03-30T14:11:35.164Z,31.62
2023-03-30T14:14:47.170Z,32.15
2023-03-30T14:17:53.699Z,32.81
2023-03-30T14:20:59.989Z,32.93
2023-03-30T14:24:05.663Z,33.04
2023-03-30T14:27:15.080Z,32.38
2023-03-30T14:30:24.930Z,32.22
2023-03-30T14:33:28.899Z,32.43
2023-03-30T14:36:32.812Z,32.52
2023-03-30T14:39:41.386Z,32.46
2023-03-30T14:42:45.369Z,32.44
2023-03-30T14:45:51.444Z,32.09
2023-03-30T14:48:56.368Z,32.28
2023-03-30T14:52:05.182Z,32.33
2023-03-30T14:55:17.575Z,32.22
2023-03-30T14:58:22.815Z,32.06
2023-03-30T15:01:31.641Z,32.43
2023-03-30T15:04:38.719Z,32.45
2023-03-30T15:07:42.610Z,32.26
2023-03-30T15:10:50.927Z,32.05
2023-03-30T15:13:58.019Z,32.18
2023-03-30T15:17:10.680Z,32.43
2023-03-30T15:20:15.888Z,32.92
2023-03-30T15:23:20.031Z,32.70
2023-03-30T15:26:23.940Z,32.80
2023-03-30T15:29:28.047Z,32.80
2023-03-30T15:32:36.557Z,33.06
2023-03-30T15:35:40.638Z,32.92
2023-03-30T15:38:48.898Z,33.36
2023-03-30T15:42:01.513Z,33.45
2023-03-30T15:45:10.968Z,33.60
2023-03-30T15:48:20.136Z,33.38
2023-03-30T15:51:28.763Z,33.76
2023-03-30T15:54:35.844Z,33.94
2023-03-30T15:57:45.037Z,34.17
2023-03-30T16:00:49.837Z,34.11
2023-03-30T16:03:58.355Z,34.05
2023-03-30T16:07:02.346Z,34.08
2023-03-30T16:10:07.082Z,34.16
2023-03-30T16:13:12.938Z,34.25
2023-03-30T16:16:18.847Z,34.29
2023-03-30T16:19:24.251Z,34.58
2023-03-30T16:22:28.149Z,34.62
2023-03-30T16:25:44.236Z,34.83
2023-03-30T16:28:52.574Z,34.78
2023-03-30T16:31:56.688Z,35.01
2023-03-30T16:35:02.232Z,35.10
2023-03-30T16:38:06.290Z,35.46
2023-03-30T16:41:14.243Z,35.52
2023-03-30T16:44:18.622Z,35.73
2023-03-30T16:47:22.765Z,35.52
2023-03-30T16:50:36.262Z,36.15
2023-03-30T16:53:40.711Z,35.92
2023-03-30T16:56:44.662Z,35.78
2023-03-30T16:59:48.608Z,35.68
2023-03-30T17:02:52.526Z,35.95
2023-03-30T17:05:58.014Z,35.94
2023-03-30T17:09:01.867Z,36.44
2023-03-30T17:12:06.062Z,36.36
2023-03-30T17:15:11.285Z,36.66
2023-03-30T17:18:17.320Z,36.70
2023-03-30T17:21:23.222Z,36.64
2023-03-30T17:24:27.041Z,37.02
2023-03-30T17:27:31.027Z,36.83
2023-03-30T17:30:37.004Z,36.63
2023-03-30T17:33:41.008Z,36.61
2023-03-30T17:36:46.630Z,36.91
2023-03-30T17:39:50.469Z,36.88
2023-03-30T17:42:54.922Z,36.85
2023-03-30T17:45:58.893Z,36.89
2023-03-30T17:49:02.699Z,36.96
2023-03-30T17:52:08.108Z,36.89
2023-03-30T17:55:11.929Z,37.02
2023-03-30T17:58:19.042Z,37.23
2023-03-30T18:01:23.085Z,37.23
2023-03-30T18:04:28.024Z,37.25
2023-03-30T18:07:33.779Z,37.40
2023-03-30T18:10:40.185Z,37.24
2023-03-30T18:13:44.124Z,37.37
2023-03-30T18:16:50.038Z,37.73
2023-03-30T18:19:54.325Z,37.88
2023-03-30T18:22:59.946Z,38.25
2023-03-30T18:26:08.316Z,38.41
2023-03-30T18:29:20.532Z,38.50
2023-03-30T18:32:29.182Z,38.52
2023-03-30T18:35:41.313Z,38.31
2023-03-30T18:38:46.662Z,38.57
2023-03-30T18:41:50.764Z,38.55
2023-03-30T18:44:54.810Z,38.54
2023-03-30T18:48:00.360Z,38.69
2023-03-30T18:51:04.381Z,38.86
2023-03-30T18:54:09.760Z,39.42
2023-03-30T18:57:13.678Z,38.82
2023-03-30T19:00:21.725Z,38.56
2023-03-30T19:03:27.571Z,38.54
2023-03-30T19:06:32.661Z,38.97
2023-03-30T19:09:43.052Z,39.31
2023-03-30T19:12:49.263Z,39.24
2023-03-30T19:15:53.861Z,38.84
2023-03-30T19:18:57.704Z,38.51
2023-03-30T19:22:01.527Z,38.60
2023-03-30T19:25:08.304Z,38.21
2023-03-30T19:28:12.545Z,37.52
2023-03-30T19:31:16.930Z,37.82
2023-03-30T19:34:21.023Z,37.26
2023-03-30T19:37:25.444Z,37.14
2023-03-30T19:40:30.877Z,37.31
2023-03-30T19:43:34.711Z,36.96
2023-03-30T19:46:39.082Z,36.64
2023-03-30T19:49:43.105Z,36.71
2023-03-30T19:52:50.308Z,36.29
2023-03-30T19:55:55.805Z,36.09
2023-03-30T19:59:00.305Z,35.72
2023-03-30T20:02:04.267Z,35.82
2023-03-30T20:05:10.487Z,35.44
2023-03-30T20:08:23.209Z,35.58
2023-03-30T20:11:29.846Z,35.73
2023-03-30T20:14:34.345Z,35.50
2023-03-30T20:17:39.066Z,35.49
2023-03-30T20:20:43.033Z,35.62
2023-03-30T20:23:46.888Z,35.91
2023-03-30T20:26:52.372Z,35.87
2023-03-30T20:29:56.290Z,35.36
2023-03-30T20:33:07.738Z,35.37
2023-03-30T20:36:12.747Z,35.14
2023-03-30T20:39:16.567Z,35.05
2023-03-30T20:42:26.535Z,34.96
2023-03-30T20:45:31.055Z,35.10
2023-03-30T20:48:39.485Z,34.90
2023-03-30T20:51:45.391Z,34.75
2023-03-30T20:54:49.700Z,34.68
2023-03-30T20:57:55.189Z,34.90
2023-03-30T21:01:01.987Z,35.04
2023-03-30T21:04:06.192Z,34.89
2023-03-30T21:07:10.778Z,34.60
2023-03-30T21:10:16.617Z,34.57
2023-03-30T21:13:22.101Z,34.58
2023-03-30T21:16:26.830Z,34.55
2023-03-30T21:19:30.710Z,34.51
2023-03-30T21:22:34.469Z,34.46
2023-03-30T21:25:38.329Z,34.61
2023-03-30T21:28:43.568Z,35.11
2023-03-30T21:31:47.486Z,35.38
2023-03-30T21:34:51.480Z,35.22
2023-03-30T21:37:55.390Z,35.64
2023-03-30T21:41:01.602Z,35.55
2023-03-30T21:44:07.389Z,35.55
2023-03-30T21:47:15.304Z,35.54
2023-03-30T21:50:19.330Z,35.86
2023-03-30T21:53:23.067Z,35.92
2023-03-30T21:56:29.555Z,36.41
2023-03-30T21:59:35.165Z,36.82
2023-03-30T22:02:38.868Z,37.03
2023-03-30T22:05:43.489Z,37.30
2023-03-30T22:08:48.102Z,37.20
2023-03-30T22:11:54.329Z,37.47
2023-03-30T22:14:59.690Z,37.33
2023-03-30T22:18:05.213Z,37.50
2023-03-30T22:21:13.252Z,38.19
2023-03-30T22:24:18.668Z,37.88
2023-03-30T22:27:22.498Z,38.66
2023-03-30T22:30:27.888Z,38.98
2023-03-30T22:33:31.789Z,39.32
2023-03-30T22:36:36.085Z,39.67
2023-03-30T22:39:40.064Z,39.70
2023-03-30T22:42:43.907Z,39.43
2023-03-30T22:45:49.470Z,39.60
2023-03-30T22:48:56.074Z,39.71
2023-03-30T22:52:02.550Z,40.07
2023-03-30T22:55:06.935Z,40.24
2023-03-30T22:58:12.182Z,40.88
2023-03-30T23:01:17.565Z,41.27
2023-03-30T23:04:21.488Z,40.79
2023-03-30T23:07:25.412Z,40.95
2023-03-30T23:10:34.069Z,40.93
2023-03-30T23:13:42.330Z,40.63
2023-03-30T23:16:47.881Z,40.42
2023-03-30T23:19:54.260Z,41.34
2023-03-30T23:22:58.159Z,41.84
2023-03-30T23:26:09.522Z,42.20
2023-03-30T23:29:13.839Z,42.09
2023-03-30T23:32:19.099Z,40.93
2023-03-30T23:35:22.978Z,41.32
2023-03-30T23:38:26.741Z,41.71
2023-03-30T23:41:30.400Z,41.56
2023-03-30T23:44:34.483Z,41.37
2023-03-30T23:47:39.710Z,41.38
2023-03-30T23:50:43.614Z,41.31
2023-03-30T23:53:47.473Z,41.33
2023-03-30T23:56:57.315Z,41.25
